Weather at Castlegar/West Kootenay Regional Airport

Public forecast

Using degrees Celsius for public forecast. Weather courtesy of forecast.io.

Current aviation weather report (METAR) for Castlegar/West Kootenay Regional Airport

Retrieved 2022/01/19 20:00 UTC (5 minutes ago):

CYCG 192000Z 36004KT 15SM FEW035 OVC073 01/M04 A3038 RMK SC1AC7 SLP313

Aviation forecast (TAF) for Castlegar/West Kootenay Regional Airport

Retrieved 2022/01/19 19:00 UTC (1 hour ago):

TAF CYCG 191840Z 1919/2001 01007KT P6SM SCT040 BKN080 TEMPO 1919/1922 BKN040 FM200000 01007KT P6SM SCT025 BKN040 TEMPO 2000/2001 BKN025 RMK NXT FCST BY 201600Z